sensor_id;sensor_type;location;lat;lon;timestamp;P1;durP1;ratioP1;P2;durP2;ratioP2
69953;SDS011;57276;51.364;12.376;2022-07-23T00:03:34;7.28;;;5.35;;
69953;SDS011;57276;51.364;12.376;2022-07-23T00:09:36;7.67;;;5.33;;
69953;SDS011;57276;51.364;12.376;2022-07-23T00:15:37;7.78;;;5.28;;
69953;SDS011;57276;51.364;12.376;2022-07-23T00:21:39;7.47;;;5.80;;
69953;SDS011;57276;51.364;12.376;2022-07-23T00:27:40;9.93;;;5.63;;
69953;SDS011;57276;51.364;12.376;2022-07-23T00:33:41;7.80;;;5.40;;
69953;SDS011;57276;51.364;12.376;2022-07-23T00:39:43;7.80;;;5.43;;
69953;SDS011;57276;51.364;12.376;2022-07-23T00:45:44;8.52;;;5.63;;
69953;SDS011;57276;51.364;12.376;2022-07-23T00:51:46;8.00;;;5.67;;
69953;SDS011;57276;51.364;12.376;2022-07-23T00:57:49;9.60;;;5.68;;
69953;SDS011;57276;51.364;12.376;2022-07-23T01:03:51;7.07;;;5.45;;
69953;SDS011;57276;51.364;12.376;2022-07-23T01:09:52;9.20;;;5.37;;
69953;SDS011;57276;51.364;12.376;2022-07-23T01:15:55;10.15;;;5.57;;
69953;SDS011;57276;51.364;12.376;2022-07-23T01:21:57;8.67;;;5.30;;
69953;SDS011;57276;51.364;12.376;2022-07-23T01:27:59;8.35;;;5.47;;
69953;SDS011;57276;51.364;12.376;2022-07-23T01:34:01;10.45;;;6.10;;
69953;SDS011;57276;51.364;12.376;2022-07-23T01:40:04;9.90;;;5.80;;
69953;SDS011;57276;51.364;12.376;2022-07-23T01:46:06;8.23;;;5.47;;
69953;SDS011;57276;51.364;12.376;2022-07-23T01:52:14;8.50;;;5.37;;
69953;SDS011;57276;51.364;12.376;2022-07-23T01:58:18;8.73;;;5.72;;
69953;SDS011;57276;51.364;12.376;2022-07-23T02:04:20;8.30;;;5.55;;
69953;SDS011;57276;51.364;12.376;2022-07-23T02:10:22;8.30;;;5.63;;
69953;SDS011;57276;51.364;12.376;2022-07-23T02:16:24;9.82;;;5.95;;
69953;SDS011;57276;51.364;12.376;2022-07-23T02:22:25;9.23;;;5.67;;
69953;SDS011;57276;51.364;12.376;2022-07-23T02:28:27;11.27;;;6.50;;
69953;SDS011;57276;51.364;12.376;2022-07-23T02:34:28;8.95;;;5.70;;
69953;SDS011;57276;51.364;12.376;2022-07-23T02:40:30;8.57;;;5.87;;
69953;SDS011;57276;51.364;12.376;2022-07-23T02:46:32;9.40;;;6.32;;
69953;SDS011;57276;51.364;12.376;2022-07-23T02:52:35;9.63;;;5.73;;
69953;SDS011;57276;51.364;12.376;2022-07-23T02:58:36;8.90;;;5.72;;
69953;SDS011;57276;51.364;12.376;2022-07-23T03:04:38;10.35;;;6.20;;
69953;SDS011;57276;51.364;12.376;2022-07-23T03:10:40;10.93;;;5.80;;
69953;SDS011;57276;51.364;12.376;2022-07-23T03:16:42;7.93;;;5.57;;
69953;SDS011;57276;51.364;12.376;2022-07-23T03:22:44;7.77;;;5.90;;
69953;SDS011;57276;51.364;12.376;2022-07-23T03:28:45;10.52;;;5.82;;
69953;SDS011;57276;51.364;12.376;2022-07-23T03:34:47;11.07;;;5.97;;
69953;SDS011;57276;51.364;12.376;2022-07-23T03:40:49;8.90;;;5.30;;
69953;SDS011;57276;51.364;12.376;2022-07-23T03:46:50;9.48;;;6.00;;
69953;SDS011;57276;51.364;12.376;2022-07-23T03:52:52;11.23;;;6.00;;
69953;SDS011;57276;51.364;12.376;2022-07-23T03:58:54;10.60;;;5.82;;
69953;SDS011;57276;51.364;12.376;2022-07-23T04:04:55;9.25;;;5.80;;
69953;SDS011;57276;51.364;12.376;2022-07-23T04:10:57;11.93;;;5.83;;
69953;SDS011;57276;51.364;12.376;2022-07-23T04:16:58;9.00;;;5.88;;
69953;SDS011;57276;51.364;12.376;2022-07-23T04:23:00;10.50;;;5.97;;
69953;SDS011;57276;51.364;12.376;2022-07-23T04:29:02;9.15;;;5.85;;
69953;SDS011;57276;51.364;12.376;2022-07-23T04:35:05;9.95;;;5.93;;
69953;SDS011;57276;51.364;12.376;2022-07-23T04:41:07;9.37;;;5.63;;
69953;SDS011;57276;51.364;12.376;2022-07-23T04:47:09;17.23;;;8.38;;
69953;SDS011;57276;51.364;12.376;2022-07-23T04:53:15;15.83;;;8.23;;
69953;SDS011;57276;51.364;12.376;2022-07-23T04:59:17;17.98;;;8.32;;
69953;SDS011;57276;51.364;12.376;2022-07-23T05:05:22;14.10;;;8.13;;
69953;SDS011;57276;51.364;12.376;2022-07-23T05:11:25;14.83;;;7.60;;
69953;SDS011;57276;51.364;12.376;2022-07-23T05:17:28;10.90;;;7.07;;
69953;SDS011;57276;51.364;12.376;2022-07-23T05:23:30;18.20;;;8.67;;
69953;SDS011;57276;51.364;12.376;2022-07-23T05:29:32;15.15;;;8.23;;
69953;SDS011;57276;51.364;12.376;2022-07-23T05:35:33;18.15;;;9.65;;
69953;SDS011;57276;51.364;12.376;2022-07-23T05:41:51;15.60;;;8.77;;
69953;SDS011;57276;51.364;12.376;2022-07-23T05:47:53;15.10;;;8.20;;
69953;SDS011;57276;51.364;12.376;2022-07-23T05:54:02;19.00;;;9.27;;
69953;SDS011;57276;51.364;12.376;2022-07-23T06:00:08;17.73;;;8.57;;
69953;SDS011;57276;51.364;12.376;2022-07-23T06:06:14;15.40;;;8.30;;
69953;SDS011;57276;51.364;12.376;2022-07-23T06:12:16;14.40;;;8.40;;
69953;SDS011;57276;51.364;12.376;2022-07-23T06:18:18;14.85;;;8.10;;
69953;SDS011;57276;51.364;12.376;2022-07-23T06:24:19;15.70;;;8.50;;
69953;SDS011;57276;51.364;12.376;2022-07-23T06:30:23;13.95;;;8.50;;
69953;SDS011;57276;51.364;12.376;2022-07-23T06:36:25;14.50;;;7.90;;
69953;SDS011;57276;51.364;12.376;2022-07-23T06:42:27;14.63;;;8.63;;
69953;SDS011;57276;51.364;12.376;2022-07-23T06:48:32;14.10;;;8.00;;
69953;SDS011;57276;51.364;12.376;2022-07-23T06:54:35;12.83;;;7.63;;
69953;SDS011;57276;51.364;12.376;2022-07-23T07:00:37;12.82;;;7.90;;
69953;SDS011;57276;51.364;12.376;2022-07-23T07:06:38;12.70;;;7.95;;
69953;SDS011;57276;51.364;12.376;2022-07-23T07:12:40;14.70;;;7.70;;
69953;SDS011;57276;51.364;12.376;2022-07-23T07:18:41;15.30;;;7.95;;
69953;SDS011;57276;51.364;12.376;2022-07-23T07:24:43;13.93;;;7.90;;
69953;SDS011;57276;51.364;12.376;2022-07-23T07:30:44;14.73;;;7.93;;
69953;SDS011;57276;51.364;12.376;2022-07-23T07:36:46;14.73;;;8.50;;
69953;SDS011;57276;51.364;12.376;2022-07-23T07:42:48;15.33;;;8.40;;
69953;SDS011;57276;51.364;12.376;2022-07-23T07:48:50;15.30;;;8.43;;
69953;SDS011;57276;51.364;12.376;2022-07-23T07:54:58;11.80;;;7.97;;
69953;SDS011;57276;51.364;12.376;2022-07-23T08:01:00;13.18;;;8.35;;
69953;SDS011;57276;51.364;12.376;2022-07-23T08:07:02;12.63;;;8.05;;
69953;SDS011;57276;51.364;12.376;2022-07-23T08:13:03;11.80;;;8.07;;
69953;SDS011;57276;51.364;12.376;2022-07-23T08:19:05;12.48;;;7.75;;
69953;SDS011;57276;51.364;12.376;2022-07-23T08:25:06;10.77;;;7.40;;
69953;SDS011;57276;51.364;12.376;2022-07-23T08:31:08;13.90;;;8.52;;
69953;SDS011;57276;51.364;12.376;2022-07-23T08:37:09;13.93;;;9.23;;
69953;SDS011;57276;51.364;12.376;2022-07-23T08:43:12;13.07;;;8.57;;
69953;SDS011;57276;51.364;12.376;2022-07-23T08:49:13;14.80;;;9.85;;
69953;SDS011;57276;51.364;12.376;2022-07-23T08:55:16;15.23;;;10.20;;
69953;SDS011;57276;51.364;12.376;2022-07-23T09:01:18;14.52;;;10.52;;
69953;SDS011;57276;51.364;12.376;2022-07-23T09:07:19;14.27;;;10.30;;
69953;SDS011;57276;51.364;12.376;2022-07-23T09:19:32;13.13;;;10.00;;
69953;SDS011;57276;51.364;12.376;2022-07-23T09:25:34;14.17;;;10.57;;
69953;SDS011;57276;51.364;12.376;2022-07-23T09:31:51;17.67;;;10.73;;
69953;SDS011;57276;51.364;12.376;2022-07-23T09:38:02;15.68;;;10.75;;
69953;SDS011;57276;51.364;12.376;2022-07-23T09:44:07;15.93;;;9.57;;
69953;SDS011;57276;51.364;12.376;2022-07-23T09:50:10;12.13;;;9.18;;
69953;SDS011;57276;51.364;12.376;2022-07-23T09:56:13;14.30;;;8.50;;
69953;SDS011;57276;51.364;12.376;2022-07-23T10:02:16;16.65;;;9.07;;
69953;SDS011;57276;51.364;12.376;2022-07-23T10:08:38;13.23;;;8.27;;
69953;SDS011;57276;51.364;12.376;2022-07-23T10:14:59;11.97;;;8.10;;
69953;SDS011;57276;51.364;12.376;2022-07-23T10:21:03;13.10;;;8.25;;
69953;SDS011;57276;51.364;12.376;2022-07-23T10:27:17;11.93;;;7.67;;
69953;SDS011;57276;51.364;12.376;2022-07-23T10:33:27;13.73;;;8.98;;
69953;SDS011;57276;51.364;12.376;2022-07-23T10:39:32;11.32;;;7.50;;
69953;SDS011;57276;51.364;12.376;2022-07-23T10:45:34;10.70;;;7.40;;
69953;SDS011;57276;51.364;12.376;2022-07-23T10:51:37;13.13;;;8.52;;
69953;SDS011;57276;51.364;12.376;2022-07-23T10:57:49;13.53;;;9.07;;
69953;SDS011;57276;51.364;12.376;2022-07-23T11:03:57;18.45;;;10.90;;
69953;SDS011;57276;51.364;12.376;2022-07-23T11:10:01;15.65;;;11.13;;
69953;SDS011;57276;51.364;12.376;2022-07-23T11:16:10;19.67;;;12.83;;
69953;SDS011;57276;51.364;12.376;2022-07-23T11:22:13;16.90;;;12.13;;
69953;SDS011;57276;51.364;12.376;2022-07-23T11:28:34;20.37;;;11.50;;
69953;SDS011;57276;51.364;12.376;2022-07-23T11:40:37;15.18;;;9.98;;
69953;SDS011;57276;51.364;12.376;2022-07-23T11:46:39;13.83;;;9.77;;
69953;SDS011;57276;51.364;12.376;2022-07-23T11:52:40;14.95;;;10.60;;
69953;SDS011;57276;51.364;12.376;2022-07-23T11:58:53;16.03;;;11.30;;
69953;SDS011;57276;51.364;12.376;2022-07-23T12:04:55;19.85;;;12.55;;
69953;SDS011;57276;51.364;12.376;2022-07-23T12:10:56;14.27;;;11.25;;
69953;SDS011;57276;51.364;12.376;2022-07-23T12:17:10;15.80;;;10.53;;
69953;SDS011;57276;51.364;12.376;2022-07-23T12:23:13;15.57;;;11.38;;
69953;SDS011;57276;51.364;12.376;2022-07-23T12:29:21;14.87;;;10.43;;
69953;SDS011;57276;51.364;12.376;2022-07-23T12:35:29;14.77;;;10.05;;
69953;SDS011;57276;51.364;12.376;2022-07-23T12:41:50;18.27;;;11.85;;
69953;SDS011;57276;51.364;12.376;2022-07-23T12:47:55;14.37;;;11.47;;
69953;SDS011;57276;51.364;12.376;2022-07-23T12:53:59;13.02;;;10.15;;
69953;SDS011;57276;51.364;12.376;2022-07-23T13:00:09;14.03;;;11.30;;
69953;SDS011;57276;51.364;12.376;2022-07-23T13:06:11;13.23;;;10.98;;
69953;SDS011;57276;51.364;12.376;2022-07-23T13:12:12;14.55;;;11.85;;
69953;SDS011;57276;51.364;12.376;2022-07-23T13:18:14;12.57;;;11.27;;
69953;SDS011;57276;51.364;12.376;2022-07-23T13:24:15;12.52;;;11.18;;
69953;SDS011;57276;51.364;12.376;2022-07-23T13:30:17;11.23;;;10.13;;
69953;SDS011;57276;51.364;12.376;2022-07-23T13:36:19;13.37;;;12.07;;
69953;SDS011;57276;51.364;12.376;2022-07-23T13:42:20;13.80;;;12.10;;
69953;SDS011;57276;51.364;12.376;2022-07-23T13:48:24;12.60;;;11.40;;
69953;SDS011;57276;51.364;12.376;2022-07-23T13:54:25;14.33;;;13.03;;
69953;SDS011;57276;51.364;12.376;2022-07-23T14:00:29;13.88;;;12.57;;
69953;SDS011;57276;51.364;12.376;2022-07-23T14:06:51;13.05;;;11.35;;
69953;SDS011;57276;51.364;12.376;2022-07-23T14:13:13;12.33;;;11.13;;
69953;SDS011;57276;51.364;12.376;2022-07-23T14:19:14;10.63;;;9.25;;
69953;SDS011;57276;51.364;12.376;2022-07-23T14:25:16;12.40;;;11.35;;
69953;SDS011;57276;51.364;12.376;2022-07-23T14:31:18;11.57;;;10.47;;
69953;SDS011;57276;51.364;12.376;2022-07-23T14:37:21;13.73;;;12.40;;
69953;SDS011;57276;51.364;12.376;2022-07-23T14:43:23;12.27;;;11.27;;
69953;SDS011;57276;51.364;12.376;2022-07-23T14:49:25;12.60;;;11.30;;
69953;SDS011;57276;51.364;12.376;2022-07-23T14:55:30;12.97;;;11.77;;
69953;SDS011;57276;51.364;12.376;2022-07-23T15:01:32;12.13;;;11.13;;
69953;SDS011;57276;51.364;12.376;2022-07-23T15:07:36;12.15;;;10.85;;
69953;SDS011;57276;51.364;12.376;2022-07-23T15:13:38;11.40;;;10.20;;
69953;SDS011;57276;51.364;12.376;2022-07-23T15:19:39;11.23;;;9.95;;
69953;SDS011;57276;51.364;12.376;2022-07-23T15:25:41;12.32;;;11.20;;
69953;SDS011;57276;51.364;12.376;2022-07-23T15:31:51;10.90;;;9.80;;
69953;SDS011;57276;51.364;12.376;2022-07-23T15:38:13;10.95;;;9.85;;
69953;SDS011;57276;51.364;12.376;2022-07-23T15:44:18;10.40;;;9.30;;
69953;SDS011;57276;51.364;12.376;2022-07-23T15:50:29;10.53;;;9.47;;
69953;SDS011;57276;51.364;12.376;2022-07-23T15:56:31;11.23;;;10.02;;
69953;SDS011;57276;51.364;12.376;2022-07-23T16:02:33;12.07;;;9.30;;
69953;SDS011;57276;51.364;12.376;2022-07-23T16:08:35;10.98;;;9.80;;
69953;SDS011;57276;51.364;12.376;2022-07-23T16:14:36;11.50;;;9.82;;
69953;SDS011;57276;51.364;12.376;2022-07-23T16:20:38;10.50;;;9.40;;
69953;SDS011;57276;51.364;12.376;2022-07-23T16:26:39;11.38;;;9.88;;
69953;SDS011;57276;51.364;12.376;2022-07-23T16:32:41;10.90;;;9.63;;
69953;SDS011;57276;51.364;12.376;2022-07-23T16:38:43;10.55;;;9.45;;
69953;SDS011;57276;51.364;12.376;2022-07-23T16:44:45;11.23;;;9.82;;
69953;SDS011;57276;51.364;12.376;2022-07-23T16:50:48;11.90;;;9.63;;
69953;SDS011;57276;51.364;12.376;2022-07-23T16:56:49;12.02;;;9.63;;
69953;SDS011;57276;51.364;12.376;2022-07-23T17:02:51;11.23;;;9.57;;
69953;SDS011;57276;51.364;12.376;2022-07-23T17:08:52;9.98;;;8.52;;
69953;SDS011;57276;51.364;12.376;2022-07-23T17:14:54;8.35;;;6.20;;
69953;SDS011;57276;51.364;12.376;2022-07-23T17:20:55;8.23;;;6.33;;
69953;SDS011;57276;51.364;12.376;2022-07-23T17:26:57;7.80;;;6.45;;
69953;SDS011;57276;51.364;12.376;2022-07-23T17:33:02;8.60;;;7.03;;
69953;SDS011;57276;51.364;12.376;2022-07-23T17:39:07;11.15;;;7.30;;
69953;SDS011;57276;51.364;12.376;2022-07-23T17:45:10;8.98;;;7.32;;
69953;SDS011;57276;51.364;12.376;2022-07-23T17:51:17;10.40;;;8.27;;
69953;SDS011;57276;51.364;12.376;2022-07-23T17:57:18;9.30;;;8.30;;
69953;SDS011;57276;51.364;12.376;2022-07-23T18:03:20;10.33;;;8.30;;
69953;SDS011;57276;51.364;12.376;2022-07-23T18:09:21;8.25;;;7.00;;
69953;SDS011;57276;51.364;12.376;2022-07-23T18:15:23;6.75;;;4.80;;
69953;SDS011;57276;51.364;12.376;2022-07-23T18:21:25;4.80;;;3.60;;
69953;SDS011;57276;51.364;12.376;2022-07-23T18:27:26;6.07;;;3.70;;
69953;SDS011;57276;51.364;12.376;2022-07-23T18:33:31;6.07;;;3.23;;
69953;SDS011;57276;51.364;12.376;2022-07-23T18:39:39;4.13;;;2.65;;
69953;SDS011;57276;51.364;12.376;2022-07-23T18:45:42;5.75;;;2.92;;
69953;SDS011;57276;51.364;12.376;2022-07-23T18:51:44;4.77;;;2.70;;
69953;SDS011;57276;51.364;12.376;2022-07-23T18:57:45;4.47;;;2.88;;
69953;SDS011;57276;51.364;12.376;2022-07-23T19:03:48;4.40;;;2.80;;
69953;SDS011;57276;51.364;12.376;2022-07-23T19:09:49;4.05;;;2.75;;
69953;SDS011;57276;51.364;12.376;2022-07-23T19:15:51;4.05;;;2.42;;
69953;SDS011;57276;51.364;12.376;2022-07-23T19:21:52;4.27;;;2.27;;
69953;SDS011;57276;51.364;12.376;2022-07-23T19:27:54;5.00;;;2.45;;
69953;SDS011;57276;51.364;12.376;2022-07-23T19:33:56;4.17;;;2.50;;
69953;SDS011;57276;51.364;12.376;2022-07-23T19:39:57;4.50;;;2.50;;
69953;SDS011;57276;51.364;12.376;2022-07-23T19:46:00;4.97;;;2.20;;
69953;SDS011;57276;51.364;12.376;2022-07-23T19:52:02;3.90;;;2.43;;
69953;SDS011;57276;51.364;12.376;2022-07-23T19:58:05;5.38;;;2.40;;
69953;SDS011;57276;51.364;12.376;2022-07-23T20:04:06;4.90;;;2.50;;
69953;SDS011;57276;51.364;12.376;2022-07-23T20:10:08;5.68;;;2.65;;
69953;SDS011;57276;51.364;12.376;2022-07-23T20:16:10;6.18;;;2.83;;
69953;SDS011;57276;51.364;12.376;2022-07-23T20:22:12;6.07;;;2.80;;
69953;SDS011;57276;51.364;12.376;2022-07-23T20:28:15;6.28;;;4.25;;
69953;SDS011;57276;51.364;12.376;2022-07-23T20:34:17;10.07;;;8.10;;
69953;SDS011;57276;51.364;12.376;2022-07-23T20:40:19;9.75;;;8.40;;
69953;SDS011;57276;51.364;12.376;2022-07-23T20:46:20;6.18;;;4.00;;
69953;SDS011;57276;51.364;12.376;2022-07-23T20:52:23;7.30;;;3.30;;
69953;SDS011;57276;51.364;12.376;2022-07-23T20:58:25;4.53;;;2.90;;
69953;SDS011;57276;51.364;12.376;2022-07-23T21:04:27;5.93;;;3.30;;
69953;SDS011;57276;51.364;12.376;2022-07-23T21:10:28;4.72;;;2.95;;
69953;SDS011;57276;51.364;12.376;2022-07-23T21:16:30;7.25;;;3.50;;
69953;SDS011;57276;51.364;12.376;2022-07-23T21:22:31;6.53;;;3.03;;
69953;SDS011;57276;51.364;12.376;2022-07-23T21:28:33;4.57;;;2.50;;
69953;SDS011;57276;51.364;12.376;2022-07-23T21:34:34;4.93;;;2.83;;
69953;SDS011;57276;51.364;12.376;2022-07-23T21:40:36;6.07;;;3.05;;
69953;SDS011;57276;51.364;12.376;2022-07-23T21:46:37;7.43;;;3.20;;
69953;SDS011;57276;51.364;12.376;2022-07-23T21:52:39;6.37;;;2.90;;
69953;SDS011;57276;51.364;12.376;2022-07-23T21:58:41;4.50;;;3.08;;
69953;SDS011;57276;51.364;12.376;2022-07-23T22:04:42;8.20;;;5.83;;
69953;SDS011;57276;51.364;12.376;2022-07-23T22:10:44;13.00;;;6.60;;
69953;SDS011;57276;51.364;12.376;2022-07-23T22:16:46;5.13;;;3.10;;
69953;SDS011;57276;51.364;12.376;2022-07-23T22:22:48;5.10;;;2.63;;
69953;SDS011;57276;51.364;12.376;2022-07-23T22:28:51;5.13;;;3.60;;
69953;SDS011;57276;51.364;12.376;2022-07-23T22:34:52;5.80;;;3.83;;
69953;SDS011;57276;51.364;12.376;2022-07-23T22:40:54;5.50;;;2.83;;
69953;SDS011;57276;51.364;12.376;2022-07-23T22:46:55;6.32;;;3.60;;
69953;SDS011;57276;51.364;12.376;2022-07-23T22:52:57;5.80;;;3.10;;
69953;SDS011;57276;51.364;12.376;2022-07-23T22:58:58;5.28;;;3.03;;
69953;SDS011;57276;51.364;12.376;2022-07-23T23:05:20;4.53;;;3.00;;
69953;SDS011;57276;51.364;12.376;2022-07-23T23:11:21;7.78;;;3.90;;
69953;SDS011;57276;51.364;12.376;2022-07-23T23:17:23;5.97;;;3.10;;
69953;SDS011;57276;51.364;12.376;2022-07-23T23:23:24;4.00;;;2.60;;
69953;SDS011;57276;51.364;12.376;2022-07-23T23:29:26;4.05;;;2.50;;
69953;SDS011;57276;51.364;12.376;2022-07-23T23:35:27;5.70;;;2.50;;
69953;SDS011;57276;51.364;12.376;2022-07-23T23:41:29;4.28;;;2.50;;
69953;SDS011;57276;51.364;12.376;2022-07-23T23:47:30;3.63;;;2.30;;
69953;SDS011;57276;51.364;12.376;2022-07-23T23:53:31;5.77;;;2.80;;
69953;SDS011;57276;51.364;12.376;2022-07-23T23:59:33;8.18;;;3.55;;
